createdAt,value
2019-04-13T00:00:42.940Z,9.00
2019-04-13T00:01:42.872Z,10.10
2019-04-13T00:02:42.766Z,10.30
2019-04-13T00:03:42.682Z,9.50
2019-04-13T00:04:42.591Z,10.30
2019-04-13T00:05:42.503Z,11.30
2019-04-13T00:06:42.416Z,10.00
2019-04-13T00:07:42.341Z,11.80
2019-04-13T00:08:42.253Z,9.70
2019-04-13T00:09:42.166Z,9.30
2019-04-13T00:10:42.092Z,10.40
2019-04-13T00:11:41.993Z,11.40
2019-04-13T00:12:41.904Z,10.20
2019-04-13T00:13:42.986Z,11.40
2019-04-13T00:14:41.729Z,11.30
2019-04-13T00:15:41.643Z,10.00
2019-04-13T00:16:41.556Z,10.50
2019-04-13T00:17:41.479Z,10.60
2019-04-13T00:18:41.395Z,11.40
2019-04-13T00:19:41.306Z,11.90
2019-04-13T00:20:41.217Z,10.10
2019-04-13T00:21:41.129Z,11.00
2019-04-13T00:22:41.043Z,10.50
2019-04-13T00:23:40.955Z,10.10
2019-04-13T00:24:40.868Z,11.30
2019-04-13T00:25:40.792Z,9.90
2019-04-13T00:26:40.705Z,11.00
2019-04-13T00:27:40.617Z,10.50
2019-04-13T00:28:40.530Z,10.80
2019-04-13T00:29:40.444Z,11.60
2019-04-13T00:30:40.357Z,10.90
2019-04-13T00:31:40.268Z,11.00
2019-04-13T00:32:40.193Z,12.20
2019-04-13T00:33:40.096Z,11.50
2019-04-13T00:34:41.661Z,11.70
2019-04-13T00:35:39.931Z,11.20
2019-04-13T00:36:39.845Z,10.70
2019-04-13T00:37:39.756Z,9.60
2019-04-13T00:38:39.669Z,11.00
2019-04-13T00:39:39.595Z,9.50
2019-04-13T00:40:39.495Z,9.50
2019-04-13T00:41:39.408Z,11.10
2019-04-13T00:42:39.319Z,12.00
2019-04-13T00:43:39.234Z,9.70
2019-04-13T00:44:39.156Z,10.40
2019-04-13T00:45:39.072Z,10.10
2019-04-13T00:46:38.996Z,10.70
2019-04-13T00:47:38.903Z,9.70
2019-04-13T00:48:38.811Z,9.30
2019-04-13T00:49:38.720Z,10.50
2019-04-13T00:50:38.633Z,10.20
2019-04-13T00:51:38.557Z,10.20
2019-04-13T00:52:38.459Z,10.00
2019-04-13T00:53:38.384Z,10.10
2019-04-13T00:54:38.299Z,12.20
2019-04-13T00:55:38.208Z,11.60
2019-04-13T00:56:38.122Z,14.10
2019-04-13T00:57:38.034Z,10.60
2019-04-13T00:58:37.946Z,12.50
2019-04-13T00:59:37.859Z,12.70
2019-04-13T01:00:37.774Z,10.80
2019-04-13T01:01:37.688Z,11.50
2019-04-13T01:02:37.610Z,11.80
2019-04-13T01:03:37.522Z,12.60
2019-04-13T01:04:37.450Z,11.10
2019-04-13T01:05:37.350Z,11.10
2019-04-13T01:06:37.261Z,12.70
2019-04-13T01:07:37.177Z,10.60
2019-04-13T01:08:37.089Z,11.10
2019-04-13T01:09:36.999Z,13.30
2019-04-13T01:10:36.913Z,12.40
2019-04-13T01:11:36.848Z,11.00
2019-04-13T01:12:36.750Z,13.60
2019-04-13T01:13:36.661Z,10.80
2019-04-13T01:14:36.575Z,10.90
2019-04-13T01:15:36.506Z,12.40
2019-04-13T01:16:36.399Z,12.90
2019-04-13T01:17:36.311Z,12.10
2019-04-13T01:18:36.224Z,11.50
2019-04-13T01:19:36.137Z,11.20
2019-04-13T01:20:36.049Z,12.00
2019-04-13T01:21:35.975Z,12.30
2019-04-13T01:22:35.887Z,13.20
2019-04-13T01:23:35.802Z,10.90
2019-04-13T01:24:35.711Z,13.10
2019-04-13T01:25:35.630Z,11.20
2019-04-13T01:26:35.537Z,10.60
2019-04-13T01:27:35.450Z,11.40
2019-04-13T01:28:35.374Z,12.30
2019-04-13T01:29:35.278Z,11.00
2019-04-13T01:30:35.244Z,12.20
2019-04-13T01:31:35.112Z,12.30
2019-04-13T01:32:35.025Z,12.10
2019-04-13T01:33:34.939Z,11.50
2019-04-13T01:34:34.851Z,12.30
2019-04-13T01:35:34.763Z,11.20
2019-04-13T01:36:34.678Z,12.20
2019-04-13T01:37:34.589Z,10.90
2019-04-13T01:38:34.503Z,13.40
2019-04-13T01:39:34.426Z,11.50
2019-04-13T01:40:34.331Z,14.20
2019-04-13T01:41:34.257Z,11.50
2019-04-13T01:42:34.164Z,12.80
2019-04-13T01:43:34.077Z,12.70
2019-04-13T01:44:33.988Z,12.40
2019-04-13T01:45:33.903Z,13.70
2019-04-13T01:46:33.829Z,13.80
2019-04-13T01:47:33.729Z,12.20
2019-04-13T01:48:33.640Z,14.60
2019-04-13T01:49:33.555Z,12.00
2019-04-13T01:50:33.466Z,11.00
2019-04-13T01:51:33.389Z,13.70
2019-04-13T01:52:33.303Z,11.70
2019-04-13T01:53:33.215Z,10.90
2019-04-13T01:54:33.128Z,11.70
2019-04-13T01:55:33.053Z,13.20
2019-04-13T01:56:32.954Z,13.20
2019-04-13T01:57:32.865Z,12.40
2019-04-13T01:58:32.777Z,11.80
2019-04-13T01:59:32.691Z,12.20
2019-04-13T02:00:32.608Z,13.20
2019-04-13T02:01:32.532Z,12.10
2019-04-13T02:02:32.442Z,12.10
2019-04-13T02:03:32.355Z,11.10
2019-04-13T02:04:32.266Z,13.50
2019-04-13T02:05:32.178Z,11.30
2019-04-13T02:06:32.091Z,12.80
2019-04-13T02:07:32.006Z,12.30
2019-04-13T02:08:31.917Z,13.00
2019-04-13T02:09:31.840Z,12.00
2019-04-13T02:10:31.748Z,13.90
2019-04-13T02:11:31.667Z,13.40
2019-04-13T02:12:31.580Z,12.70
2019-04-13T02:13:31.506Z,13.80
2019-04-13T02:14:31.408Z,11.40
2019-04-13T02:15:31.320Z,13.10
2019-04-13T02:16:31.232Z,12.40
2019-04-13T02:17:31.143Z,13.40
2019-04-13T02:18:31.056Z,12.00
2019-04-13T02:19:30.969Z,11.90
2019-04-13T02:20:30.894Z,12.80
2019-04-13T02:21:30.806Z,10.60
2019-04-13T02:22:30.735Z,12.20
2019-04-13T02:23:30.631Z,13.40
2019-04-13T02:24:30.543Z,11.60
2019-04-13T02:25:30.459Z,12.70
2019-04-13T02:26:30.371Z,12.20
2019-04-13T02:27:30.283Z,11.60
2019-04-13T02:28:30.194Z,12.00
2019-04-13T02:29:30.107Z,13.40
2019-04-13T02:30:30.040Z,12.10
2019-04-13T02:31:29.947Z,11.90
2019-04-13T02:32:29.860Z,13.30
2019-04-13T02:33:29.772Z,12.50
2019-04-13T02:34:29.684Z,13.40
2019-04-13T02:35:36.177Z,12.10
2019-04-13T02:36:29.509Z,10.60
2019-04-13T02:37:29.436Z,12.00
2019-04-13T02:38:29.338Z,11.10
2019-04-13T02:39:29.259Z,13.10
2019-04-13T02:40:29.159Z,13.30
2019-04-13T02:41:29.074Z,11.10
2019-04-13T02:42:29.000Z,12.30
2019-04-13T02:43:28.898Z,12.50
2019-04-13T02:44:28.834Z,12.30
2019-04-13T02:45:28.736Z,11.70
2019-04-13T02:46:28.650Z,11.50
2019-04-13T02:47:28.559Z,12.80
2019-04-13T02:48:28.479Z,11.80
2019-04-13T02:49:28.385Z,13.60
2019-04-13T02:50:28.296Z,12.50
2019-04-13T02:51:28.211Z,11.80
2019-04-13T02:52:28.126Z,11.80
2019-04-13T02:53:28.035Z,11.80
2019-04-13T02:54:27.949Z,12.90
2019-04-13T02:55:27.871Z,12.80
2019-04-13T02:56:27.785Z,10.90
2019-04-13T02:57:27.698Z,11.40
2019-04-13T02:58:27.611Z,12.70
2019-04-13T02:59:27.523Z,11.80
2019-04-13T03:00:27.437Z,12.40
2019-04-13T03:01:27.349Z,11.90
2019-04-13T03:02:27.261Z,11.50
2019-04-13T03:03:27.187Z,12.70
2019-04-13T03:04:27.085Z,11.80
2019-04-13T03:05:26.998Z,11.90
2019-04-13T03:06:26.912Z,12.10
2019-04-13T03:07:28.670Z,11.50
2019-04-13T03:08:26.748Z,13.20
2019-04-13T03:09:26.665Z,14.10
2019-04-13T03:10:26.584Z,13.20
2019-04-13T03:11:26.492Z,12.20
2019-04-13T03:12:26.401Z,11.90
2019-04-13T03:13:26.313Z,12.70
2019-04-13T03:14:26.225Z,11.00
2019-04-13T03:15:26.137Z,10.90
2019-04-13T03:16:26.050Z,13.20
2019-04-13T03:17:25.975Z,11.90
2019-04-13T03:18:25.876Z,13.30
2019-04-13T03:19:25.847Z,11.40
2019-04-13T03:20:25.715Z,11.90
2019-04-13T03:21:25.624Z,13.10
2019-04-13T03:22:25.540Z,12.80
2019-04-13T03:23:25.451Z,12.40
2019-04-13T03:24:25.365Z,13.10
2019-04-13T03:25:25.275Z,11.70
2019-04-13T03:26:25.188Z,11.70
2019-04-13T03:27:25.100Z,10.90
2019-04-13T03:28:25.015Z,11.30
2019-04-13T03:29:24.926Z,12.20
2019-04-13T03:30:24.851Z,12.20
2019-04-13T03:31:24.767Z,12.10
2019-04-13T03:32:24.677Z,11.90
2019-04-13T03:33:24.595Z,11.80
2019-04-13T03:34:24.501Z,11.60
2019-04-13T03:35:24.415Z,11.90
2019-04-13T03:36:24.328Z,10.70
2019-04-13T03:37:24.240Z,12.50
2019-04-13T03:38:24.169Z,11.90
2019-04-13T03:39:24.065Z,12.50
2019-04-13T03:40:23.976Z,12.60
2019-04-13T03:41:23.895Z,11.20
2019-04-13T03:42:23.803Z,10.90
2019-04-13T03:43:23.717Z,12.30
2019-04-13T03:44:23.627Z,12.20
2019-04-13T03:45:23.560Z,11.80
2019-04-13T03:46:23.466Z,13.20
2019-04-13T03:47:23.378Z,11.90
2019-04-13T03:48:23.295Z,11.30
2019-04-13T03:49:23.204Z,12.50
2019-04-13T03:50:23.115Z,12.40
2019-04-13T03:51:23.028Z,10.60
2019-04-13T03:52:22.943Z,10.70
2019-04-13T03:53:22.854Z,11.70
2019-04-13T03:54:22.766Z,12.40
2019-04-13T03:55:22.681Z,10.50
2019-04-13T03:56:22.595Z,11.60
2019-04-13T03:57:22.505Z,10.50
2019-04-13T03:58:22.418Z,11.10
2019-04-13T03:59:22.342Z,13.60
2019-04-13T04:00:22.253Z,10.80
2019-04-13T04:01:22.173Z,12.00
2019-04-13T04:02:22.093Z,12.10
2019-04-13T04:03:21.993Z,12.80
2019-04-13T04:04:21.904Z,13.00
2019-04-13T04:05:21.818Z,11.90
2019-04-13T04:06:21.730Z,11.60
2019-04-13T04:07:21.643Z,13.40
2019-04-13T04:08:21.555Z,12.70
2019-04-13T04:09:21.472Z,12.00
2019-04-13T04:10:21.383Z,10.50
2019-04-13T04:11:21.294Z,11.10
2019-04-13T04:12:21.207Z,12.20
2019-04-13T04:13:21.143Z,11.00
2019-04-13T04:14:21.043Z,11.40
2019-04-13T04:15:20.955Z,11.80
2019-04-13T04:16:20.874Z,11.70
2019-04-13T04:17:20.785Z,12.10
2019-04-13T04:18:20.695Z,11.20
2019-04-13T04:19:20.606Z,11.60
2019-04-13T04:20:20.521Z,10.40
2019-04-13T04:21:20.433Z,11.80
2019-04-13T04:22:20.345Z,11.20
2019-04-13T04:23:20.259Z,11.00
2019-04-13T04:24:20.170Z,11.80
2019-04-13T04:25:20.084Z,13.20
2019-04-13T04:26:20.007Z,10.30
2019-04-13T04:27:19.923Z,9.90
2019-04-13T04:28:19.832Z,13.00
2019-04-13T04:29:19.752Z,13.80
2019-04-13T04:30:19.671Z,11.70
2019-04-13T04:31:19.579Z,11.60
2019-04-13T04:32:19.483Z,10.50
2019-04-13T04:33:19.396Z,11.20
2019-04-13T04:34:19.308Z,11.20
2019-04-13T04:35:19.233Z,11.00
2019-04-13T04:36:23.875Z,10.70
2019-04-13T04:37:19.046Z,13.70
2019-04-13T04:38:18.972Z,11.30
2019-04-13T04:39:18.883Z,12.20
2019-04-13T04:40:18.785Z,11.60
2019-04-13T04:41:18.709Z,10.60
2019-04-13T04:42:18.626Z,11.30
2019-04-13T04:43:18.535Z,11.10
2019-04-13T04:44:18.447Z,13.00
2019-04-13T04:45:18.373Z,10.70
2019-04-13T04:46:18.273Z,11.10
2019-04-13T04:47:18.184Z,10.90
2019-04-13T04:48:18.096Z,10.90
2019-04-13T04:49:18.018Z,12.70
2019-04-13T04:50:17.923Z,12.00
2019-04-13T04:51:17.835Z,9.90
2019-04-13T04:52:17.749Z,12.10
2019-04-13T04:53:17.674Z,12.30
2019-04-13T04:54:17.585Z,11.70
2019-04-13T04:55:17.498Z,10.80
2019-04-13T04:56:17.410Z,11.70
2019-04-13T04:57:17.332Z,11.30
2019-04-13T04:58:17.236Z,9.60
2019-04-13T04:59:17.152Z,10.30
2019-04-13T05:00:17.062Z,9.70
2019-04-13T05:01:16.974Z,12.50
2019-04-13T05:02:16.890Z,10.50
2019-04-13T05:03:16.800Z,9.50
2019-04-13T05:04:16.724Z,10.30
2019-04-13T05:05:16.636Z,11.50
2019-04-13T05:06:16.556Z,10.30
2019-04-13T05:07:16.462Z,10.00
2019-04-13T05:08:16.375Z,10.30
2019-04-13T05:09:16.288Z,10.80
2019-04-13T05:10:16.201Z,9.20
2019-04-13T05:11:16.112Z,11.20
2019-04-13T05:12:16.027Z,9.90
2019-04-13T05:13:15.937Z,9.60
2019-04-13T05:14:15.865Z,10.90
2019-04-13T05:15:15.762Z,9.90
2019-04-13T05:16:15.675Z,10.30
2019-04-13T05:17:15.589Z,10.10
2019-04-13T05:18:15.513Z,10.30
2019-04-13T05:19:15.427Z,11.90
2019-04-13T05:20:15.338Z,10.20
2019-04-13T05:21:15.257Z,11.00
2019-04-13T05:22:25.596Z,10.80
2019-04-13T05:23:15.078Z,12.20
2019-04-13T05:24:14.989Z,10.30
2019-04-13T05:25:14.902Z,11.10
2019-04-13T05:26:14.826Z,11.60
2019-04-13T05:27:14.727Z,9.40
2019-04-13T05:28:14.639Z,10.50
2019-04-13T05:29:14.615Z,11.90
2019-04-13T05:30:14.477Z,10.90
2019-04-13T05:31:14.391Z,10.10
2019-04-13T05:32:14.307Z,10.90
2019-04-13T05:33:14.215Z,11.90
2019-04-13T05:34:14.130Z,10.30
2019-04-13T05:35:14.052Z,10.70
2019-04-13T05:36:13.953Z,12.70
2019-04-13T05:37:13.865Z,9.80
2019-04-13T05:38:13.783Z,9.20
2019-04-13T05:39:13.693Z,10.40
2019-04-13T05:40:13.615Z,9.00
2019-04-13T05:41:13.529Z,11.00
2019-04-13T05:42:13.440Z,10.20
2019-04-13T05:43:13.354Z,9.30
2019-04-13T05:44:13.265Z,9.20
2019-04-13T05:45:13.179Z,10.20
2019-04-13T05:46:13.093Z,10.80
2019-04-13T05:47:13.004Z,9.10
2019-04-13T05:48:12.916Z,10.80
2019-04-13T05:49:12.831Z,10.90
2019-04-13T05:50:12.743Z,11.30
2019-04-13T05:51:12.672Z,11.50
2019-04-13T05:52:12.581Z,9.50
2019-04-13T05:53:12.493Z,10.30
2019-04-13T05:54:12.405Z,10.00
2019-04-13T05:55:12.317Z,10.30
2019-04-13T05:56:12.230Z,10.30
2019-04-13T05:57:13.332Z,9.70
2019-04-13T05:58:12.240Z,10.30
2019-04-13T05:59:11.967Z,10.80
2019-04-13T06:00:11.880Z,11.70
2019-04-13T06:01:11.806Z,10.70
2019-04-13T06:02:11.719Z,11.10
2019-04-13T06:03:11.640Z,8.80
2019-04-13T06:04:11.543Z,9.40
2019-04-13T06:05:11.457Z,8.80
2019-04-13T06:06:11.368Z,10.00
2019-04-13T06:07:11.281Z,10.60
2019-04-13T06:08:11.195Z,9.60
2019-04-13T06:09:12.711Z,10.30
2019-04-13T06:10:11.032Z,10.00
2019-04-13T06:11:10.944Z,10.10
2019-04-13T06:12:10.857Z,9.70
2019-04-13T06:13:10.771Z,9.50
2019-04-13T06:14:10.685Z,9.60
2019-04-13T06:15:10.594Z,11.00
2019-04-13T06:16:10.508Z,9.60
2019-04-13T06:17:10.419Z,12.40
2019-04-13T06:18:20.788Z,8.80
2019-04-13T06:19:10.258Z,9.20
2019-04-13T06:20:10.169Z,11.20
2019-04-13T06:21:10.083Z,11.10
2019-04-13T06:22:09.996Z,10.70
2019-04-13T06:23:09.909Z,10.30
2019-04-13T06:24:09.820Z,9.30
2019-04-13T06:25:10.319Z,10.40
2019-04-13T06:26:09.648Z,10.70
2019-04-13T06:27:11.479Z,9.10
2019-04-13T06:28:09.483Z,10.30
2019-04-13T06:29:09.396Z,10.90
2019-04-13T06:30:09.310Z,11.80
2019-04-13T06:31:09.222Z,8.70
2019-04-13T06:32:09.134Z,10.10
2019-04-13T06:33:09.046Z,10.30
2019-04-13T06:34:08.959Z,9.90
2019-04-13T06:35:08.876Z,10.90
2019-04-13T06:36:09.498Z,11.20
2019-04-13T06:37:12.361Z,9.80
2019-04-13T06:38:08.634Z,10.50
2019-04-13T06:39:08.534Z,9.80
2019-04-13T06:40:08.871Z,10.00
2019-04-13T06:41:10.797Z,9.70
2019-04-13T06:42:08.272Z,9.50
2019-04-13T06:43:08.198Z,10.80
2019-04-13T06:44:08.110Z,9.20
2019-04-13T06:45:08.022Z,9.50
2019-04-13T06:46:07.936Z,12.80
2019-04-13T06:47:07.849Z,9.50
2019-04-13T06:48:07.761Z,13.00
2019-04-13T06:49:07.686Z,9.20
2019-04-13T06:50:07.598Z,11.10
2019-04-13T06:51:07.512Z,10.00
2019-04-13T06:52:07.427Z,10.00
2019-04-13T06:53:08.135Z,9.40
2019-04-13T06:54:07.249Z,9.60
2019-04-13T06:55:07.162Z,12.00
2019-04-13T06:56:07.078Z,11.20
2019-04-13T06:57:06.999Z,10.90
2019-04-13T06:58:06.913Z,9.30
2019-04-13T06:59:06.829Z,11.30
2019-04-13T07:00:06.740Z,11.60
2019-04-13T07:01:06.649Z,10.50
2019-04-13T07:02:06.574Z,10.30
2019-04-13T07:03:06.488Z,10.10
2019-04-13T07:04:06.402Z,11.80
2019-04-13T07:05:06.313Z,10.70
2019-04-13T07:06:06.225Z,10.00
2019-04-13T07:07:07.742Z,10.20
2019-04-13T07:08:06.050Z,10.20
2019-04-13T07:09:05.975Z,9.50
2019-04-13T07:10:05.888Z,12.50
2019-04-13T07:11:05.800Z,11.70
2019-04-13T07:12:05.714Z,11.70
2019-04-13T07:13:05.626Z,10.50
2019-04-13T07:14:05.544Z,11.00
2019-04-13T07:15:05.464Z,10.80
2019-04-13T07:16:05.376Z,11.80
2019-04-13T07:17:05.296Z,10.90
2019-04-13T07:18:05.201Z,9.70
2019-04-13T07:19:06.392Z,12.20
2019-04-13T07:20:05.041Z,9.60
2019-04-13T07:21:04.964Z,11.70
2019-04-13T07:22:04.866Z,12.10
2019-04-13T07:23:04.780Z,11.80
2019-04-13T07:24:04.694Z,9.20
2019-04-13T07:25:04.615Z,9.00
2019-04-13T07:26:06.350Z,11.20
2019-04-13T07:27:04.442Z,9.80
2019-04-13T07:28:04.353Z,10.10
2019-04-13T07:29:04.267Z,9.90
2019-04-13T07:30:04.250Z,11.60
2019-04-13T07:31:04.102Z,10.60
2019-04-13T07:32:04.016Z,9.70
2019-04-13T07:33:03.928Z,11.30
2019-04-13T07:34:03.854Z,11.70
2019-04-13T07:35:05.385Z,10.30
2019-04-13T07:36:03.691Z,11.00
2019-04-13T07:37:03.610Z,9.50
2019-04-13T07:38:03.504Z,10.20
2019-04-13T07:39:03.419Z,9.10
2019-04-13T07:40:03.343Z,10.10
2019-04-13T07:41:03.258Z,9.50
2019-04-13T07:42:04.864Z,10.00
2019-04-13T07:43:03.080Z,10.40
2019-04-13T07:44:03.005Z,8.90
2019-04-13T07:45:02.918Z,11.70
2019-04-13T07:46:02.836Z,11.90
2019-04-13T07:47:02.747Z,9.40
2019-04-13T07:48:02.672Z,9.50
2019-04-13T07:49:02.580Z,10.10
2019-04-13T07:50:02.495Z,10.30
2019-04-13T07:51:02.405Z,9.90
2019-04-13T07:52:02.343Z,9.00
2019-04-13T07:53:03.533Z,9.80
2019-04-13T07:54:04.375Z,10.20
2019-04-13T07:55:02.083Z,12.20
2019-04-13T07:56:01.996Z,10.50
2019-04-13T07:57:02.416Z,10.90
2019-04-13T07:58:01.825Z,10.90
2019-04-13T07:59:01.733Z,9.60
2019-04-13T08:00:01.670Z,11.30
2019-04-13T08:01:01.575Z,9.90
2019-04-13T08:02:01.482Z,9.40
2019-04-13T08:03:01.407Z,12.90
2019-04-13T08:04:01.322Z,11.90
2019-04-13T08:05:01.233Z,11.30
2019-04-13T08:06:01.145Z,12.30
2019-04-13T08:07:01.098Z,11.30
2019-04-13T08:08:00.982Z,9.90
2019-04-13T08:09:00.896Z,9.80
2019-04-13T08:10:00.808Z,10.50
2019-04-13T08:11:00.743Z,9.60
2019-04-13T08:12:00.645Z,9.30
2019-04-13T08:13:00.560Z,9.50
2019-04-13T08:14:00.483Z,8.40
2019-04-13T08:15:00.396Z,10.10
2019-04-13T08:16:00.308Z,10.80
2019-04-13T08:17:00.233Z,9.30
2019-04-13T08:18:00.153Z,9.20
2019-04-13T08:19:00.058Z,11.00
2019-04-13T08:19:59.971Z,10.30
2019-04-13T08:21:01.728Z,13.80
2019-04-13T08:22:03.788Z,8.20
2019-04-13T08:22:59.722Z,8.90
2019-04-13T08:23:59.647Z,9.10
2019-04-13T08:24:59.559Z,9.80
2019-04-13T08:25:59.471Z,12.60
2019-04-13T08:26:59.397Z,10.20
2019-04-13T08:27:59.309Z,9.90
2019-04-13T08:28:59.234Z,10.20
2019-04-13T08:29:59.148Z,11.10
2019-04-13T08:30:59.072Z,9.70
2019-04-13T08:32:01.771Z,9.80
2019-04-13T08:33:00.925Z,8.50
2019-04-13T08:33:58.813Z,10.40
2019-04-13T08:34:59.892Z,12.50
2019-04-13T08:35:58.662Z,12.10
2019-04-13T08:37:03.080Z,10.00
2019-04-13T08:38:12.201Z,9.80
2019-04-13T08:38:59.370Z,9.40
2019-04-13T08:40:02.630Z,10.20
2019-04-13T08:41:10.484Z,10.50
2019-04-13T08:41:58.150Z,9.90
2019-04-13T08:42:59.142Z,9.80
2019-04-13T08:43:57.974Z,11.10
2019-04-13T08:44:57.900Z,9.60
2019-04-13T08:45:57.812Z,8.80
2019-04-13T08:46:57.737Z,8.50
2019-04-13T08:47:57.651Z,9.70
2019-04-13T08:48:57.561Z,10.40
2019-04-13T08:49:57.487Z,8.60
2019-04-13T08:50:57.401Z,10.60
2019-04-13T08:51:57.314Z,8.60
2019-04-13T08:52:57.240Z,9.20
2019-04-13T08:53:57.153Z,10.50
2019-04-13T08:54:57.064Z,9.30
2019-04-13T08:55:56.987Z,10.60
2019-04-13T08:56:56.902Z,11.40
2019-04-13T08:57:56.830Z,9.10
2019-04-13T08:58:57.734Z,10.50
2019-04-13T08:59:56.651Z,9.40
2019-04-13T09:00:56.577Z,9.60
2019-04-13T09:01:56.491Z,9.50
2019-04-13T09:02:56.413Z,9.50
2019-04-13T09:03:56.330Z,8.70
2019-04-13T09:04:56.238Z,9.40
2019-04-13T09:05:56.164Z,9.30
2019-04-13T09:06:56.078Z,9.80
2019-04-13T09:07:56.004Z,9.40
2019-04-13T09:08:55.914Z,11.90
2019-04-13T09:09:56.525Z,9.80
2019-04-13T09:10:55.860Z,9.90
2019-04-13T09:11:55.762Z,10.80
2019-04-13T09:12:57.509Z,10.90
2019-04-13T09:13:56.236Z,10.20
2019-04-13T09:14:58.279Z,10.00
2019-04-13T09:15:55.806Z,9.70
2019-04-13T09:16:55.812Z,10.80
2019-04-13T09:17:58.600Z,8.90
2019-04-13T09:18:56.916Z,8.90
2019-04-13T09:19:55.150Z,8.40
2019-04-13T09:21:00.630Z,8.10
2019-04-13T09:21:55.599Z,9.30
2019-04-13T09:22:55.616Z,9.20
2019-04-13T09:23:54.678Z,9.20
2019-04-13T09:24:54.592Z,9.20
2019-04-13T09:25:58.932Z,10.00
2019-04-13T09:26:54.429Z,8.50
2019-04-13T09:27:54.341Z,9.40
2019-04-13T09:28:54.266Z,9.10
2019-04-13T09:29:54.179Z,9.50
2019-04-13T09:30:54.105Z,9.00
2019-04-13T09:31:54.017Z,9.90
2019-04-13T09:32:53.930Z,9.00
2019-04-13T09:33:53.855Z,10.10
2019-04-13T09:34:53.780Z,9.50
2019-04-13T09:35:56.258Z,10.00
2019-04-13T09:36:53.609Z,8.50
2019-04-13T09:37:53.523Z,9.20
2019-04-13T09:38:53.442Z,8.80
2019-04-13T09:39:54.242Z,8.40
2019-04-13T09:40:53.281Z,8.50
2019-04-13T09:41:53.194Z,9.70
2019-04-13T09:42:53.118Z,9.70
2019-04-13T09:43:55.702Z,9.30
2019-04-13T09:44:52.955Z,9.10
2019-04-13T09:45:52.868Z,8.80
2019-04-13T09:46:52.784Z,8.50
2019-04-13T09:47:52.707Z,8.80
2019-04-13T09:48:52.620Z,9.40
2019-04-13T09:49:52.543Z,9.90
2019-04-13T09:50:52.468Z,9.60
2019-04-13T09:51:52.381Z,8.40
2019-04-13T09:52:52.296Z,9.30
2019-04-13T09:53:55.843Z,8.70
2019-04-13T09:54:52.132Z,8.50
2019-04-13T09:55:52.046Z,9.90
2019-04-13T09:56:52.658Z,8.30
2019-04-13T09:57:51.882Z,8.90
2019-04-13T09:58:51.809Z,9.30
2019-04-13T09:59:51.720Z,9.90
2019-04-13T10:00:52.618Z,8.70
2019-04-13T10:01:51.559Z,8.50
2019-04-13T10:02:51.491Z,8.20
2019-04-13T10:03:51.397Z,9.00
2019-04-13T10:04:51.308Z,9.50
2019-04-13T10:05:51.233Z,9.90
2019-04-13T10:06:51.160Z,10.20
2019-04-13T10:07:51.072Z,8.70
2019-04-13T10:08:56.053Z,9.10
2019-04-13T10:09:50.909Z,9.30
2019-04-13T10:10:50.821Z,9.20
2019-04-13T10:11:52.753Z,8.80
2019-04-13T10:12:50.664Z,10.00
2019-04-13T10:13:50.591Z,9.60
2019-04-13T10:14:50.505Z,10.50
2019-04-13T10:15:50.421Z,12.90
2019-04-13T10:16:50.509Z,8.50
2019-04-13T10:17:54.334Z,8.30
2019-04-13T10:18:50.176Z,8.10
2019-04-13T10:19:50.096Z,8.90
2019-04-13T10:20:50.010Z,8.30
2019-04-13T10:21:50.527Z,9.00
2019-04-13T10:22:49.860Z,8.70
2019-04-13T10:23:49.785Z,9.50
2019-04-13T10:24:49.686Z,9.80
2019-04-13T10:25:49.610Z,10.00
2019-04-13T10:26:49.531Z,8.70
2019-04-13T10:27:49.447Z,11.10
2019-04-13T10:28:49.361Z,8.30
2019-04-13T10:29:49.870Z,8.10
2019-04-13T10:30:51.292Z,8.80
2019-04-13T10:31:49.134Z,9.60
2019-04-13T10:32:49.038Z,8.80
2019-04-13T10:33:48.961Z,8.20
2019-04-13T10:34:48.878Z,11.90
2019-04-13T10:35:48.798Z,11.10
2019-04-13T10:36:48.713Z,10.00
2019-04-13T10:37:48.637Z,9.70
2019-04-13T10:38:48.549Z,8.50
2019-04-13T10:39:48.473Z,8.80
2019-04-13T10:40:48.390Z,9.50
2019-04-13T10:41:48.313Z,9.00
2019-04-13T10:42:48.237Z,8.10
2019-04-13T10:43:48.149Z,10.10
2019-04-13T10:44:48.065Z,10.30
2019-04-13T10:45:48.312Z,9.10
2019-04-13T10:46:47.899Z,9.10
2019-04-13T10:47:49.504Z,9.00
2019-04-13T10:48:47.745Z,9.50
2019-04-13T10:49:47.652Z,10.10
2019-04-13T10:50:47.576Z,8.80
2019-04-13T10:51:47.489Z,8.30
2019-04-13T10:52:47.413Z,9.60
2019-04-13T10:53:47.326Z,7.80
2019-04-13T10:54:47.251Z,10.90
2019-04-13T10:55:47.165Z,9.00
2019-04-13T10:56:47.089Z,8.90
2019-04-13T10:57:47.001Z,10.00
2019-04-13T10:58:46.926Z,9.10
2019-04-13T10:59:50.620Z,9.80
2019-04-13T11:00:46.765Z,9.50
2019-04-13T11:01:46.690Z,10.20
2019-04-13T11:02:46.590Z,9.30
2019-04-13T11:03:46.503Z,9.00
2019-04-13T11:04:46.427Z,8.80
2019-04-13T11:05:46.340Z,8.30
2019-04-13T11:06:46.270Z,10.10
2019-04-13T11:07:46.177Z,9.70
2019-04-13T11:08:46.102Z,9.60
2019-04-13T11:09:46.021Z,10.60
2019-04-13T11:10:45.928Z,8.00
2019-04-13T11:11:45.852Z,7.70
2019-04-13T11:12:45.766Z,8.00
2019-04-13T11:13:45.691Z,8.40
2019-04-13T11:14:45.603Z,9.70
2019-04-13T11:15:45.516Z,7.40
2019-04-13T11:16:45.450Z,8.60
2019-04-13T11:17:45.354Z,8.00
2019-04-13T11:18:45.278Z,7.70
2019-04-13T11:19:45.192Z,8.00
2019-04-13T11:20:45.373Z,7.90
2019-04-13T11:21:47.263Z,7.90
2019-04-13T11:22:44.944Z,7.20
2019-04-13T11:23:46.018Z,8.90
2019-04-13T11:24:44.779Z,7.40
2019-04-13T11:25:44.717Z,8.70
2019-04-13T11:26:44.620Z,8.10
2019-04-13T11:27:44.545Z,10.40
2019-04-13T11:28:44.456Z,7.40
2019-04-13T11:29:44.368Z,8.30
2019-04-13T11:30:44.282Z,9.10
2019-04-13T11:31:44.219Z,10.40
2019-04-13T11:32:44.120Z,7.10
2019-04-13T11:33:44.048Z,7.30
2019-04-13T11:34:43.955Z,7.20
2019-04-13T11:35:43.871Z,7.30
2019-04-13T11:36:43.795Z,8.80
2019-04-13T11:37:43.707Z,7.00
2019-04-13T11:38:43.631Z,6.90
2019-04-13T11:39:43.549Z,6.40
2019-04-13T11:40:43.456Z,6.90
2019-04-13T11:41:43.381Z,8.00
2019-04-13T11:42:43.294Z,8.50
2019-04-13T11:43:43.207Z,7.00
2019-04-13T11:44:43.131Z,7.10
2019-04-13T11:45:43.045Z,7.20
2019-04-13T11:46:44.198Z,7.20
2019-04-13T11:47:42.883Z,8.80
2019-04-13T11:48:42.806Z,8.50
2019-04-13T11:49:42.725Z,8.70
2019-04-13T11:50:42.644Z,7.50
2019-04-13T11:51:42.557Z,6.70
2019-04-13T11:52:42.470Z,7.70
2019-04-13T11:53:42.384Z,8.50
2019-04-13T11:54:42.308Z,7.80
2019-04-13T11:55:42.220Z,7.30
2019-04-13T11:56:42.147Z,9.60
2019-04-13T11:57:42.058Z,8.90
2019-04-13T11:58:41.976Z,8.00
2019-04-13T11:59:44.599Z,7.90
2019-04-13T12:00:41.808Z,7.00
2019-04-13T12:01:41.734Z,8.70
2019-04-13T12:02:41.646Z,8.50
2019-04-13T12:03:41.563Z,7.10
2019-04-13T12:04:41.496Z,7.10
2019-04-13T12:05:41.396Z,8.60
2019-04-13T12:06:41.324Z,8.00
2019-04-13T12:07:41.234Z,9.30
2019-04-13T12:08:41.161Z,8.60
2019-04-13T12:09:49.760Z,7.50
2019-04-13T12:10:40.985Z,7.60
2019-04-13T12:11:40.909Z,8.80
2019-04-13T12:12:40.823Z,8.60
2019-04-13T12:13:40.748Z,9.10
2019-04-13T12:14:40.659Z,8.40
2019-04-13T12:15:40.590Z,8.30
2019-04-13T12:16:40.499Z,7.50
2019-04-13T12:17:40.423Z,7.10
2019-04-13T12:18:40.339Z,6.40
2019-04-13T12:19:40.248Z,7.20
2019-04-13T12:20:40.176Z,6.00
2019-04-13T12:21:40.085Z,6.50
2019-04-13T12:22:40.011Z,6.80
2019-04-13T12:23:39.925Z,6.10
2019-04-13T12:24:39.836Z,6.10
2019-04-13T12:25:40.401Z,7.30
2019-04-13T12:26:39.674Z,8.00
2019-04-13T12:27:39.599Z,6.50
2019-04-13T12:28:39.512Z,7.00
2019-04-13T12:29:40.057Z,7.30
2019-04-13T12:30:39.352Z,7.40
2019-04-13T12:31:39.418Z,7.30
2019-04-13T12:32:39.640Z,7.20
2019-04-13T12:33:39.178Z,6.60
2019-04-13T12:34:39.025Z,6.80
2019-04-13T12:35:38.937Z,8.10
2019-04-13T12:36:38.863Z,7.10
2019-04-13T12:37:38.777Z,8.00
2019-04-13T12:38:49.351Z,7.00
2019-04-13T12:39:40.280Z,8.70
2019-04-13T12:40:38.527Z,9.60
2019-04-13T12:41:38.451Z,8.30
2019-04-13T12:42:38.365Z,7.80
2019-04-13T12:43:38.294Z,7.30
2019-04-13T12:44:38.449Z,10.20
2019-04-13T12:45:38.127Z,9.80
2019-04-13T12:46:38.051Z,8.60
2019-04-13T12:47:42.161Z,10.50
2019-04-13T12:48:37.877Z,9.00
2019-04-13T12:49:37.807Z,9.50
2019-04-13T12:50:37.714Z,8.90
2019-04-13T12:51:37.641Z,8.30
2019-04-13T12:52:37.551Z,9.00
2019-04-13T12:53:37.468Z,9.60
2019-04-13T12:54:37.951Z,9.10
2019-04-13T12:55:37.303Z,10.80
2019-04-13T12:56:37.228Z,9.10
2019-04-13T12:57:37.140Z,10.30
2019-04-13T12:58:37.055Z,10.00
2019-04-13T12:59:37.288Z,9.50
2019-04-13T13:00:39.147Z,9.70
2019-04-13T13:01:36.816Z,13.70